sensor_id;sensor_type;location;lat;lon;timestamp;temperature;humidity
55026;DHT22;40925;45.666;18.994;2023-07-24T00:11:31;563.70;2432.00
55026;DHT22;40925;45.666;18.994;2023-07-24T00:13:57;563.50;2432.00
55026;DHT22;40925;45.666;18.994;2023-07-24T00:16:23;563.60;2432.00
55026;DHT22;40925;45.666;18.994;2023-07-24T00:18:48;563.70;2432.00
55026;DHT22;40925;45.666;18.994;2023-07-24T00:21:14;563.70;2432.00
55026;DHT22;40925;45.666;18.994;2023-07-24T00:23:40;563.90;2432.00
55026;DHT22;40925;45.666;18.994;2023-07-24T00:26:06;563.70;2432.00
55026;DHT22;40925;45.666;18.994;2023-07-24T00:28:32;563.70;2432.00
55026;DHT22;40925;45.666;18.994;2023-07-24T00:30:59;563.70;2432.00
55026;DHT22;40925;45.666;18.994;2023-07-24T00:33:24;563.60;2432.00
55026;DHT22;40925;45.666;18.994;2023-07-24T00:35:50;563.70;2432.00
55026;DHT22;40925;45.666;18.994;2023-07-24T00:38:16;563.70;2432.00
55026;DHT22;40925;45.666;18.994;2023-07-24T00:40:41;563.60;2432.00
55026;DHT22;40925;45.666;18.994;2023-07-24T00:43:07;563.60;2432.00
55026;DHT22;40925;45.666;18.994;2023-07-24T00:45:33;563.60;2432.00
55026;DHT22;40925;45.666;18.994;2023-07-24T00:47:59;563.60;2432.00
55026;DHT22;40925;45.666;18.994;2023-07-24T00:50:32;563.60;2432.00
55026;DHT22;40925;45.666;18.994;2023-07-24T00:52:57;563.60;2432.00
55026;DHT22;40925;45.666;18.994;2023-07-24T00:55:24;563.60;2432.00
55026;DHT22;40925;45.666;18.994;2023-07-24T00:57:50;563.70;2432.00
55026;DHT22;40925;45.666;18.994;2023-07-24T01:00:16;563.70;2432.00
55026;DHT22;40925;45.666;18.994;2023-07-24T01:02:43;563.80;2432.00
55026;DHT22;40925;45.666;18.994;2023-07-24T01:05:09;563.80;2432.00
55026;DHT22;40925;45.666;18.994;2023-07-24T01:07:37;563.80;2432.00
55026;DHT22;40925;45.666;18.994;2023-07-24T01:10:03;563.80;2432.00
55026;DHT22;40925;45.666;18.994;2023-07-24T01:12:39;563.70;2432.00
55026;DHT22;40925;45.666;18.994;2023-07-24T01:15:56;563.70;2432.00
55026;DHT22;40925;45.666;18.994;2023-07-24T01:18:28;563.60;2432.00
55026;DHT22;40925;45.666;18.994;2023-07-24T01:20:56;563.60;2432.00
55026;DHT22;40925;45.666;18.994;2023-07-24T01:23:48;563.60;2432.00
55026;DHT22;40925;45.666;18.994;2023-07-24T01:26:21;563.50;2432.00
55026;DHT22;40925;45.666;18.994;2023-07-24T01:28:47;563.40;2432.00
55026;DHT22;40925;45.666;18.994;2023-07-24T01:31:13;563.40;2432.00
55026;DHT22;40925;45.666;18.994;2023-07-24T01:33:39;563.40;2432.00
55026;DHT22;40925;45.666;18.994;2023-07-24T01:36:05;563.40;2432.00
55026;DHT22;40925;45.666;18.994;2023-07-24T01:38:34;563.40;2432.00
55026;DHT22;40925;45.666;18.994;2023-07-24T01:41:00;563.40;2432.00
55026;DHT22;40925;45.666;18.994;2023-07-24T01:43:27;563.40;2432.00
55026;DHT22;40925;45.666;18.994;2023-07-24T01:45:53;563.40;2432.00
55026;DHT22;40925;45.666;18.994;2023-07-24T01:48:19;563.40;2432.00
55026;DHT22;40925;45.666;18.994;2023-07-24T01:50:45;563.50;2432.00
55026;DHT22;40925;45.666;18.994;2023-07-24T01:53:11;563.40;2432.00
55026;DHT22;40925;45.666;18.994;2023-07-24T01:55:37;563.50;2432.00
55026;DHT22;40925;45.666;18.994;2023-07-24T01:58:02;563.30;2432.00
55026;DHT22;40925;45.666;18.994;2023-07-24T02:00:28;563.30;2432.00
55026;DHT22;40925;45.666;18.994;2023-07-24T04:21:55;538.50;2406.40
55026;DHT22;40925;45.666;18.994;2023-07-24T04:24:20;538.40;2406.40
55026;DHT22;40925;45.666;18.994;2023-07-24T04:26:46;538.40;2406.40
55026;DHT22;40925;45.666;18.994;2023-07-24T04:29:12;563.40;2432.00
55026;DHT22;40925;45.666;18.994;2023-07-24T04:34:04;563.50;2432.00
55026;DHT22;40925;45.666;18.994;2023-07-24T04:41:21;563.60;2432.00
55026;DHT22;40925;45.666;18.994;2023-07-24T04:43:47;563.50;2432.00
55026;DHT22;40925;45.666;18.994;2023-07-24T04:46:13;563.60;2432.00
55026;DHT22;40925;45.666;18.994;2023-07-24T04:48:38;563.70;2432.00
55026;DHT22;40925;45.666;18.994;2023-07-24T04:51:04;563.70;2432.00
55026;DHT22;40925;45.666;18.994;2023-07-24T04:53:30;563.90;2432.00
55026;DHT22;40925;45.666;18.994;2023-07-24T04:58:22;564.10;2432.00
55026;DHT22;40925;45.666;18.994;2023-07-24T05:00:47;588.80;2432.00
55026;DHT22;40925;45.666;18.994;2023-07-24T05:03:13;588.90;2432.00
55026;DHT22;40925;45.666;18.994;2023-07-24T05:05:39;589.00;2432.00
55026;DHT22;40925;45.666;18.994;2023-07-24T05:08:05;589.10;2432.00
55026;DHT22;40925;45.666;18.994;2023-07-24T05:10:35;589.20;2432.00
55026;DHT22;40925;45.666;18.994;2023-07-24T05:13:01;589.30;2432.00
55026;DHT22;40925;45.666;18.994;2023-07-24T05:15:27;589.40;2432.00
55026;DHT22;40925;45.666;18.994;2023-07-24T05:17:52;589.50;2432.00
55026;DHT22;40925;45.666;18.994;2023-07-24T05:20:18;589.60;2432.00
55026;DHT22;40925;45.666;18.994;2023-07-24T05:22:44;589.60;2432.00
55026;DHT22;40925;45.666;18.994;2023-07-24T05:25:10;614.40;2432.00
55026;DHT22;40925;45.666;18.994;2023-07-24T05:27:36;614.50;2432.00
55026;DHT22;40925;45.666;18.994;2023-07-24T05:30:02;614.60;2432.00
55026;DHT22;40925;45.666;18.994;2023-07-24T05:32:28;614.60;2432.00
55026;DHT22;40925;45.666;18.994;2023-07-24T05:37:20;614.80;2432.00
55026;DHT22;40925;45.666;18.994;2023-07-24T05:39:45;615.00;2432.00
55026;DHT22;40925;45.666;18.994;2023-07-24T05:42:11;615.10;2432.00
55026;DHT22;40925;45.666;18.994;2023-07-24T05:44:37;615.10;2432.00
55026;DHT22;40925;45.666;18.994;2023-07-24T05:47:03;615.20;2432.00
55026;DHT22;40925;45.666;18.994;2023-07-24T05:49:29;615.30;2432.00
55026;DHT22;40925;45.666;18.994;2023-07-24T05:51:54;615.30;2432.00
55026;DHT22;40925;45.666;18.994;2023-07-24T05:54:22;640.10;2432.00
55026;DHT22;40925;45.666;18.994;2023-07-24T05:56:47;640.00;2432.00
55026;DHT22;40925;45.666;18.994;2023-07-24T05:59:13;640.20;2432.00
55026;DHT22;40925;45.666;18.994;2023-07-24T06:01:39;640.40;2432.00
55026;DHT22;40925;45.666;18.994;2023-07-24T06:04:05;640.50;2432.00
55026;DHT22;40925;45.666;18.994;2023-07-24T06:06:32;640.30;2432.00
55026;DHT22;40925;45.666;18.994;2023-07-24T06:08:58;640.40;2432.00
55026;DHT22;40925;45.666;18.994;2023-07-24T06:11:24;640.50;2432.00
55026;DHT22;40925;45.666;18.994;2023-07-24T06:13:51;640.70;2432.00
55026;DHT22;40925;45.666;18.994;2023-07-24T06:16:18;640.80;2432.00
55026;DHT22;40925;45.666;18.994;2023-07-24T06:18:44;665.60;2432.00
55026;DHT22;40925;45.666;18.994;2023-07-24T06:21:10;665.60;2432.00
55026;DHT22;40925;45.666;18.994;2023-07-24T06:23:35;665.60;2432.00
55026;DHT22;40925;45.666;18.994;2023-07-24T06:26:01;665.80;2432.00
55026;DHT22;40925;45.666;18.994;2023-07-24T06:28:27;666.10;2432.00
55026;DHT22;40925;45.666;18.994;2023-07-24T06:57:45;691.90;2432.00
55026;DHT22;40925;45.666;18.994;2023-07-24T07:00:11;692.00;2432.00
55026;DHT22;40925;45.666;18.994;2023-07-24T07:02:38;692.00;2432.00
55026;DHT22;40925;45.666;18.994;2023-07-24T07:05:04;692.00;2432.00
55026;DHT22;40925;45.666;18.994;2023-07-24T07:07:30;692.10;2432.00
55026;DHT22;40925;45.666;18.994;2023-07-24T07:09:56;716.80;2432.00
55026;DHT22;40925;45.666;18.994;2023-07-24T07:12:21;716.80;2432.00
55026;DHT22;40925;45.666;18.994;2023-07-24T07:14:47;717.00;2432.00
55026;DHT22;40925;45.666;18.994;2023-07-24T07:17:13;717.00;2432.00
55026;DHT22;40925;45.666;18.994;2023-07-24T07:19:39;716.90;2432.00
55026;DHT22;40925;45.666;18.994;2023-07-24T07:22:05;716.80;2432.00
55026;DHT22;40925;45.666;18.994;2023-07-24T07:24:31;717.00;2432.00
55026;DHT22;40925;45.666;18.994;2023-07-24T07:26:56;717.10;2432.00
55026;DHT22;40925;45.666;18.994;2023-07-24T07:31:48;717.50;2432.00
55026;DHT22;40925;45.666;18.994;2023-07-24T07:34:14;717.50;2432.00
55026;DHT22;40925;45.666;18.994;2023-07-24T07:39:06;742.70;2432.00
55026;DHT22;40925;45.666;18.994;2023-07-24T07:41:31;742.60;2432.00
55026;DHT22;40925;45.666;18.994;2023-07-24T07:46:23;742.90;2432.00
55026;DHT22;40925;45.666;18.994;2023-07-24T07:48:49;742.80;2432.00
55026;DHT22;40925;45.666;18.994;2023-07-24T07:51:15;742.90;2432.00
55026;DHT22;40925;45.666;18.994;2023-07-24T07:53:41;742.90;2432.00
55026;DHT22;40925;45.666;18.994;2023-07-24T07:56:06;743.00;2406.40
55026;DHT22;40925;45.666;18.994;2023-07-24T07:58:33;743.00;2432.00
55026;DHT22;40925;45.666;18.994;2023-07-24T08:01:04;743.00;2432.00
55026;DHT22;40925;45.666;18.994;2023-07-24T08:03:29;743.20;2432.00
55026;DHT22;40925;45.666;18.994;2023-07-24T08:05:58;743.20;2432.00
55026;DHT22;40925;45.666;18.994;2023-07-24T08:08:24;743.00;2406.40
55026;DHT22;40925;45.666;18.994;2023-07-24T08:10:50;743.10;2432.00
55026;DHT22;40925;45.666;18.994;2023-07-24T08:20:36;768.80;2329.60
55026;DHT22;40925;45.666;18.994;2023-07-24T08:23:02;768.90;2329.60
55026;DHT22;40925;45.666;18.994;2023-07-24T08:25:28;768.80;2304.00
55026;DHT22;40925;45.666;18.994;2023-07-24T09:24:56;820.00;1996.80
55026;DHT22;40925;45.666;18.994;2023-07-24T09:27:25;819.80;1996.80
55026;DHT22;40925;45.666;18.994;2023-07-24T09:29:52;819.70;2022.40
55026;DHT22;40925;45.666;18.994;2023-07-24T10:11:38;845.20;1894.40
55026;DHT22;40925;45.666;18.994;2023-07-24T10:14:04;845.10;1894.40
55026;DHT22;40925;45.666;18.994;2023-07-24T10:16:30;845.10;1894.40
55026;DHT22;40925;45.666;18.994;2023-07-24T10:18:56;845.20;1894.40
55026;DHT22;40925;45.666;18.994;2023-07-24T10:21:28;845.20;1920.00
55026;DHT22;40925;45.666;18.994;2023-07-24T10:53:35;870.60;1792.00
55026;DHT22;40925;45.666;18.994;2023-07-24T10:56:02;870.40;1792.00
55026;DHT22;40925;45.666;18.994;2023-07-24T10:58:29;870.40;1792.00
55026;DHT22;40925;45.666;18.994;2023-07-24T11:00:55;845.70;1817.60
55026;DHT22;40925;45.666;18.994;2023-07-24T11:03:25;870.80;1792.00
55026;DHT22;40925;45.666;18.994;2023-07-24T11:05:51;870.50;1792.00
55026;DHT22;40925;45.666;18.994;2023-07-24T11:08:19;870.40;1817.60
55026;DHT22;40925;45.666;18.994;2023-07-24T11:10:50;870.60;1817.60
55026;DHT22;40925;45.666;18.994;2023-07-24T11:15:49;871.10;1715.20
55026;DHT22;40925;45.666;18.994;2023-07-24T11:18:16;870.90;1715.20
55026;DHT22;40925;45.666;18.994;2023-07-24T11:20:50;871.30;1689.60
55026;DHT22;40925;45.666;18.994;2023-07-24T11:23:16;871.20;1664.00
55026;DHT22;40925;45.666;18.994;2023-07-24T11:25:42;871.20;1689.60
55026;DHT22;40925;45.666;18.994;2023-07-24T11:28:10;896.10;1689.60
55026;DHT22;40925;45.666;18.994;2023-07-24T11:30:37;871.20;1689.60
55026;DHT22;40925;45.666;18.994;2023-07-24T11:33:04;871.20;1664.00
55026;DHT22;40925;45.666;18.994;2023-07-24T11:35:34;871.00;1664.00
55026;DHT22;40925;45.666;18.994;2023-07-24T11:38:01;871.00;1664.00
55026;DHT22;40925;45.666;18.994;2023-07-24T11:40:37;871.10;1638.40
55026;DHT22;40925;45.666;18.994;2023-07-24T11:43:03;871.00;1638.40
55026;DHT22;40925;45.666;18.994;2023-07-24T11:45:30;871.00;1638.40
55026;DHT22;40925;45.666;18.994;2023-07-24T11:47:56;871.20;1587.20
55026;DHT22;40925;45.666;18.994;2023-07-24T11:50:23;871.20;1587.20
55026;DHT22;40925;45.666;18.994;2023-07-24T11:52:52;871.10;1587.20
55026;DHT22;40925;45.666;18.994;2023-07-24T11:55:30;871.00;1587.20
55026;DHT22;40925;45.666;18.994;2023-07-24T11:58:01;870.90;1561.60
55026;DHT22;40925;45.666;18.994;2023-07-24T12:00:27;871.30;1561.60
55026;DHT22;40925;45.666;18.994;2023-07-24T12:03:02;871.20;1561.60
55026;DHT22;40925;45.666;18.994;2023-07-24T12:05:38;871.10;1561.60
55026;DHT22;40925;45.666;18.994;2023-07-24T12:08:05;871.20;1561.60
55026;DHT22;40925;45.666;18.994;2023-07-24T12:10:30;871.00;1612.80
55026;DHT22;40925;45.666;18.994;2023-07-24T12:12:58;870.80;1638.40
55026;DHT22;40925;45.666;18.994;2023-07-24T12:15:25;870.80;1612.80
55026;DHT22;40925;45.666;18.994;2023-07-24T12:17:52;870.70;1612.80
55026;DHT22;40925;45.666;18.994;2023-07-24T12:20:18;870.50;1638.40
55026;DHT22;40925;45.666;18.994;2023-07-24T12:22:44;870.50;1587.20
55026;DHT22;40925;45.666;18.994;2023-07-24T12:25:09;870.90;1561.60
55026;DHT22;40925;45.666;18.994;2023-07-24T12:27:35;871.20;1561.60
55026;DHT22;40925;45.666;18.994;2023-07-24T12:30:03;871.20;1561.60
55026;DHT22;40925;45.666;18.994;2023-07-24T12:32:28;871.00;1536.00
55026;DHT22;40925;45.666;18.994;2023-07-24T12:34:54;871.00;1536.00
55026;DHT22;40925;45.666;18.994;2023-07-24T12:37:20;871.00;1587.20
55026;DHT22;40925;45.666;18.994;2023-07-24T12:39:47;870.80;1612.80
55026;DHT22;40925;45.666;18.994;2023-07-24T12:42:13;871.00;1561.60
55026;DHT22;40925;45.666;18.994;2023-07-24T12:44:40;871.10;1561.60
55026;DHT22;40925;45.666;18.994;2023-07-24T12:47:06;871.20;1561.60
55026;DHT22;40925;45.666;18.994;2023-07-24T12:49:35;896.20;1536.00
55026;DHT22;40925;45.666;18.994;2023-07-24T12:52:02;896.20;1536.00
55026;DHT22;40925;45.666;18.994;2023-07-24T12:54:28;896.70;1510.40
55026;DHT22;40925;45.666;18.994;2023-07-24T12:56:53;871.30;1484.80
55026;DHT22;40925;45.666;18.994;2023-07-24T12:59:19;871.10;1536.00
55026;DHT22;40925;45.666;18.994;2023-07-24T13:01:46;871.20;1536.00
55026;DHT22;40925;45.666;18.994;2023-07-24T13:04:12;871.30;1510.40
55026;DHT22;40925;45.666;18.994;2023-07-24T13:06:37;896.30;1536.00
55026;DHT22;40925;45.666;18.994;2023-07-24T13:09:04;896.10;1510.40
55026;DHT22;40925;45.666;18.994;2023-07-24T13:11:30;871.20;1510.40
55026;DHT22;40925;45.666;18.994;2023-07-24T13:13:59;896.10;1459.20
55026;DHT22;40925;45.666;18.994;2023-07-24T13:16:25;896.10;1433.60
55026;DHT22;40925;45.666;18.994;2023-07-24T13:18:50;896.50;1433.60
55026;DHT22;40925;45.666;18.994;2023-07-24T13:21:16;896.60;1484.80
55026;DHT22;40925;45.666;18.994;2023-07-24T13:23:42;921.60;1510.40
55026;DHT22;40925;45.666;18.994;2023-07-24T13:28:36;896.70;1459.20
55026;DHT22;40925;45.666;18.994;2023-07-24T13:33:42;896.70;1484.80
55026;DHT22;40925;45.666;18.994;2023-07-24T13:36:08;896.40;1433.60
55026;DHT22;40925;45.666;18.994;2023-07-24T13:38:35;896.40;1484.80
55026;DHT22;40925;45.666;18.994;2023-07-24T13:41:01;896.40;1459.20
55026;DHT22;40925;45.666;18.994;2023-07-24T13:43:27;896.50;1484.80
55026;DHT22;40925;45.666;18.994;2023-07-24T13:45:53;896.60;1484.80
55026;DHT22;40925;45.666;18.994;2023-07-24T13:48:18;896.40;1484.80
55026;DHT22;40925;45.666;18.994;2023-07-24T13:50:44;896.40;1484.80
55026;DHT22;40925;45.666;18.994;2023-07-24T13:53:10;896.80;1484.80
55026;DHT22;40925;45.666;18.994;2023-07-24T13:55:37;896.60;1484.80
55026;DHT22;40925;45.666;18.994;2023-07-24T13:58:04;896.50;1484.80
55026;DHT22;40925;45.666;18.994;2023-07-24T14:00:29;896.50;1459.20
55026;DHT22;40925;45.666;18.994;2023-07-24T14:02:55;896.60;1433.60
55026;DHT22;40925;45.666;18.994;2023-07-24T14:05:24;896.30;1459.20
55026;DHT22;40925;45.666;18.994;2023-07-24T14:07:50;896.40;1459.20
55026;DHT22;40925;45.666;18.994;2023-07-24T14:10:16;896.50;1459.20
55026;DHT22;40925;45.666;18.994;2023-07-24T14:12:42;896.40;1433.60
55026;DHT22;40925;45.666;18.994;2023-07-24T14:15:08;896.60;1433.60
55026;DHT22;40925;45.666;18.994;2023-07-24T14:17:34;896.60;1433.60
55026;DHT22;40925;45.666;18.994;2023-07-24T14:20:02;896.30;1433.60
55026;DHT22;40925;45.666;18.994;2023-07-24T14:22:27;896.30;1459.20
55026;DHT22;40925;45.666;18.994;2023-07-24T14:24:53;896.30;1459.20
55026;DHT22;40925;45.666;18.994;2023-07-24T14:27:22;896.40;1459.20
55026;DHT22;40925;45.666;18.994;2023-07-24T14:29:47;896.50;1433.60
55026;DHT22;40925;45.666;18.994;2023-07-24T14:32:13;896.20;1433.60
55026;DHT22;40925;45.666;18.994;2023-07-24T14:34:41;896.30;1459.20
55026;DHT22;40925;45.666;18.994;2023-07-24T14:37:07;896.40;1433.60
55026;DHT22;40925;45.666;18.994;2023-07-24T14:39:32;896.20;1484.80
55026;DHT22;40925;45.666;18.994;2023-07-24T14:41:58;871.30;1459.20
55026;DHT22;40925;45.666;18.994;2023-07-24T14:44:25;896.30;1433.60
55026;DHT22;40925;45.666;18.994;2023-07-24T14:46:51;896.10;1459.20
55026;DHT22;40925;45.666;18.994;2023-07-24T14:49:17;896.10;1433.60
55026;DHT22;40925;45.666;18.994;2023-07-24T14:56:35;896.50;1484.80
55026;DHT22;40925;45.666;18.994;2023-07-24T14:59:00;896.40;1510.40
55026;DHT22;40925;45.666;18.994;2023-07-24T15:01:26;896.50;1484.80
55026;DHT22;40925;45.666;18.994;2023-07-24T15:03:55;896.50;1484.80
55026;DHT22;40925;45.666;18.994;2023-07-24T15:06:21;896.80;1484.80
55026;DHT22;40925;45.666;18.994;2023-07-24T15:08:47;896.60;1510.40
55026;DHT22;40925;45.666;18.994;2023-07-24T15:11:13;896.60;1484.80
55026;DHT22;40925;45.666;18.994;2023-07-24T15:13:40;896.60;1510.40
55026;DHT22;40925;45.666;18.994;2023-07-24T15:21:00;896.80;1459.20
55026;DHT22;40925;45.666;18.994;2023-07-24T15:23:26;896.40;1484.80
55026;DHT22;40925;45.666;18.994;2023-07-24T15:25:52;896.50;1484.80
55026;DHT22;40925;45.666;18.994;2023-07-24T15:28:17;896.40;1484.80
55026;DHT22;40925;45.666;18.994;2023-07-24T15:30:49;896.50;1484.80
55026;DHT22;40925;45.666;18.994;2023-07-24T15:33:17;896.40;1484.80
55026;DHT22;40925;45.666;18.994;2023-07-24T15:35:43;896.00;1510.40
55026;DHT22;40925;45.666;18.994;2023-07-24T15:38:09;871.30;1510.40
55026;DHT22;40925;45.666;18.994;2023-07-24T15:40:34;871.20;1536.00
55026;DHT22;40925;45.666;18.994;2023-07-24T15:43:00;871.20;1536.00
55026;DHT22;40925;45.666;18.994;2023-07-24T15:45:29;871.00;1561.60
55026;DHT22;40925;45.666;18.994;2023-07-24T15:47:55;871.00;1561.60
55026;DHT22;40925;45.666;18.994;2023-07-24T16:58:36;845.10;1868.80
55026;DHT22;40925;45.666;18.994;2023-07-24T17:01:02;845.00;1868.80
55026;DHT22;40925;45.666;18.994;2023-07-24T17:03:28;820.10;1894.40
55026;DHT22;40925;45.666;18.994;2023-07-24T17:08:20;844.80;1945.60
55026;DHT22;40925;45.666;18.994;2023-07-24T17:10:48;820.00;1971.20
55026;DHT22;40925;45.666;18.994;2023-07-24T17:13:14;819.80;1996.80
55026;DHT22;40925;45.666;18.994;2023-07-24T17:15:41;820.00;1996.80
55026;DHT22;40925;45.666;18.994;2023-07-24T17:18:07;819.80;2048.00
55026;DHT22;40925;45.666;18.994;2023-07-24T17:20:33;819.80;2073.60
55026;DHT22;40925;45.666;18.994;2023-07-24T17:22:59;819.50;2099.20
55026;DHT22;40925;45.666;18.994;2023-07-24T17:25:24;819.20;2150.40
55026;DHT22;40925;45.666;18.994;2023-07-24T17:27:51;794.40;2201.60
55026;DHT22;40925;45.666;18.994;2023-07-24T17:30:16;794.10;2278.40
55026;DHT22;40925;45.666;18.994;2023-07-24T17:32:43;794.20;2329.60
55026;DHT22;40925;45.666;18.994;2023-07-24T17:35:11;793.90;2406.40
55026;DHT22;40925;45.666;18.994;2023-07-24T17:37:37;793.70;2432.00
55026;DHT22;40925;45.666;18.994;2023-07-24T17:40:04;793.60;2432.00
55026;DHT22;40925;45.666;18.994;2023-07-24T17:42:30;768.90;2432.00
55026;DHT22;40925;45.666;18.994;2023-07-24T17:44:56;793.60;2432.00
55026;DHT22;40925;45.666;18.994;2023-07-24T17:47:22;768.80;2432.00
55026;DHT22;40925;45.666;18.994;2023-07-24T17:49:48;768.70;2432.00
55026;DHT22;40925;45.666;18.994;2023-07-24T17:52:13;768.60;2432.00
55026;DHT22;40925;45.666;18.994;2023-07-24T17:54:41;768.40;2432.00
55026;DHT22;40925;45.666;18.994;2023-07-24T17:57:13;768.60;2432.00
55026;DHT22;40925;45.666;18.994;2023-07-24T17:59:39;768.70;2432.00
55026;DHT22;40925;45.666;18.994;2023-07-24T18:02:06;768.60;2432.00
55026;DHT22;40925;45.666;18.994;2023-07-24T18:04:32;768.50;2432.00
55026;DHT22;40925;45.666;18.994;2023-07-24T18:06:59;768.30;2432.00
55026;DHT22;40925;45.666;18.994;2023-07-24T18:09:25;768.30;2432.00
55026;DHT22;40925;45.666;18.994;2023-07-24T18:11:53;768.20;2432.00
55026;DHT22;40925;45.666;18.994;2023-07-24T18:14:19;768.20;2432.00
55026;DHT22;40925;45.666;18.994;2023-07-24T18:16:46;768.10;2432.00
55026;DHT22;40925;45.666;18.994;2023-07-24T18:19:12;768.00;2432.00
55026;DHT22;40925;45.666;18.994;2023-07-24T18:21:38;743.30;2432.00
55026;DHT22;40925;45.666;18.994;2023-07-24T18:24:04;743.20;2432.00
55026;DHT22;40925;45.666;18.994;2023-07-24T18:26:34;743.20;2432.00
55026;DHT22;40925;45.666;18.994;2023-07-24T18:29:09;743.10;2432.00
55026;DHT22;40925;45.666;18.994;2023-07-24T18:31:35;742.90;2432.00
55026;DHT22;40925;45.666;18.994;2023-07-24T18:34:01;742.70;2432.00
55026;DHT22;40925;45.666;18.994;2023-07-24T18:36:27;742.60;2432.00
55026;DHT22;40925;45.666;18.994;2023-07-24T18:38:52;742.40;2432.00
55026;DHT22;40925;45.666;18.994;2023-07-24T18:41:18;742.40;2432.00
55026;DHT22;40925;45.666;18.994;2023-07-24T18:43:44;717.70;2432.00
55026;DHT22;40925;45.666;18.994;2023-07-24T18:46:09;717.60;2432.00
55026;DHT22;40925;45.666;18.994;2023-07-24T18:48:35;717.60;2432.00
55026;DHT22;40925;45.666;18.994;2023-07-24T18:51:01;742.40;2432.00
55026;DHT22;40925;45.666;18.994;2023-07-24T18:53:28;742.50;2432.00
55026;DHT22;40925;45.666;18.994;2023-07-24T21:00:49;691.70;2432.00
55026;DHT22;40925;45.666;18.994;2023-07-24T21:03:15;691.50;2432.00
55026;DHT22;40925;45.666;18.994;2023-07-24T22:55:32;691.40;2432.00
55026;DHT22;40925;45.666;18.994;2023-07-24T22:57:58;666.50;2432.00
55026;DHT22;40925;45.666;18.994;2023-07-24T23:00:23;666.50;2432.00
55026;DHT22;40925;45.666;18.994;2023-07-24T23:02:49;666.40;2432.00
55026;DHT22;40925;45.666;18.994;2023-07-24T23:05:15;666.20;2432.00
55026;DHT22;40925;45.666;18.994;2023-07-24T23:07:40;666.10;2432.00
55026;DHT22;40925;45.666;18.994;2023-07-24T23:10:06;665.90;2432.00
